Time,TemperatureF,DewpointF,PressureIn,WindDirection,WindDirectionDegrees,WindSpeedMPH,WindSpeedGustMPH,Humidity,HourlyPrecipIn,Conditions,Clouds,dailyrainin,SoftwareType,DateUTC
2013-03-05 00:08:00,44.2,43.0,30.05,North,6,0.0,0.0,94,0.00,,,0.00,weatherlink.com 1.10,2013-03-05 08:08:00,
2013-03-05 00:23:00,43.9,42.0,30.05,North,6,0.0,0.0,94,0.00,,,0.00,weatherlink.com 1.10,2013-03-05 08:23:00,
2013-03-05 00:38:00,43.7,42.0,30.04,North,6,0.0,0.0,94,0.00,,,0.00,weatherlink.com 1.10,2013-03-05 08:38:00,
2013-03-05 00:53:00,43.2,41.0,30.04,North,6,0.0,0.0,93,0.00,,,0.00,weatherlink.com 1.10,2013-03-05 08:53:00,
2013-03-05 01:08:00,42.8,41.0,30.04,North,6,0.0,0.0,94,0.00,,,0.00,weatherlink.com 1.10,2013-03-05 09:08:00,
2013-03-05 01:23:00,42.6,41.0,30.04,North,6,0.0,0.0,94,0.00,,,0.00,weatherlink.com 1.10,2013-03-05 09:23:00,
2013-03-05 01:38:00,42.6,41.0,30.04,North,6,0.0,0.0,95,0.00,,,0.00,weatherlink.com 1.10,2013-03-05 09:38:00,
2013-03-05 01:53:00,42.5,41.0,30.04,North,6,0.0,0.0,95,0.00,,,0.00,weatherlink.com 1.10,2013-03-05 09:53:00,
2013-03-05 02:08:00,42.1,41.0,30.04,North,6,0.0,0.0,94,0.00,,,0.00,weatherlink.com 1.10,2013-03-05 10:08:00,
2013-03-05 02:23:00,41.9,41.0,30.04,North,6,0.0,0.0,95,0.00,,,0.00,weatherlink.com 1.10,2013-03-05 10:23:00,
2013-03-05 02:38:00,41.8,41.0,30.04,North,6,0.0,0.0,95,0.00,,,0.00,weatherlink.com 1.10,2013-03-05 10:38:00,
2013-03-05 02:53:00,41.9,41.0,30.04,North,6,0.0,0.0,95,0.00,,,0.00,weatherlink.com 1.10,2013-03-05 10:53:00,
2013-03-05 03:08:00,42.1,41.0,30.05,North,6,0.0,0.0,95,0.00,,,0.00,weatherlink.com 1.10,2013-03-05 11:08:00,
2013-03-05 03:23:00,42.2,41.0,30.05,North,6,0.0,0.0,95,0.00,,,0.00,weatherlink.com 1.10,2013-03-05 11:23:00,
2013-03-05 03:38:00,42.3,41.0,30.04,North,6,0.0,0.0,95,0.00,,,0.00,weatherlink.com 1.10,2013-03-05 11:38:00,
2013-03-05 03:53:00,42.5,41.0,30.05,North,6,0.0,0.0,95,0.00,,,0.00,weatherlink.com 1.10,2013-03-05 11:53:00,
2013-03-05 04:09:00,42.7,41.0,30.05,North,6,0.0,0.0,95,0.00,,,0.00,weatherlink.com 1.10,2013-03-05 12:09:00,
2013-03-05 04:23:00,42.9,42.0,30.05,North,6,0.0,0.0,96,0.00,,,0.00,weatherlink.com 1.10,2013-03-05 12:23:00,
2013-03-05 04:38:00,43.1,42.0,30.05,North,6,0.0,0.0,96,0.00,,,0.00,weatherlink.com 1.10,2013-03-05 12:38:00,
2013-03-05 04:53:00,43.2,42.0,30.06,North,6,0.0,0.0,96,0.00,,,0.00,weatherlink.com 1.10,2013-03-05 12:53:00,
2013-03-05 05:08:00,43.2,42.0,30.06,North,6,0.0,0.0,96,0.00,,,0.00,weatherlink.com 1.10,2013-03-05 13:08:00,
2013-03-05 05:23:00,43.3,42.0,30.04,North,6,0.0,1.0,96,0.00,,,0.00,weatherlink.com 1.10,2013-03-05 13:23:00,
2013-03-05 05:38:00,43.2,42.0,30.05,North,6,0.0,1.0,96,0.00,,,0.00,weatherlink.com 1.10,2013-03-05 13:38:00,
2013-03-05 05:53:00,43.1,42.0,30.05,North,6,0.0,0.0,96,0.00,,,0.00,weatherlink.com 1.10,2013-03-05 13:53:00,
2013-03-05 06:08:00,43.1,42.0,30.05,North,6,0.0,1.0,96,0.00,,,0.00,weatherlink.com 1.10,2013-03-05 14:08:00,
2013-03-05 06:23:00,43.0,42.0,30.05,North,6,0.0,0.0,96,0.00,,,0.00,weatherlink.com 1.10,2013-03-05 14:23:00,
2013-03-05 06:38:00,42.8,42.0,30.05,North,6,0.0,0.0,96,0.00,,,0.00,weatherlink.com 1.10,2013-03-05 14:38:00,
2013-03-05 06:53:00,42.4,41.0,30.05,North,6,0.0,0.0,95,0.00,,,0.00,weatherlink.com 1.10,2013-03-05 14:53:00,
2013-03-05 07:08:00,42.0,41.0,30.06,North,6,0.0,0.0,95,0.00,,,0.00,weatherlink.com 1.10,2013-03-05 15:08:00,
2013-03-05 07:23:00,41.9,41.0,30.06,North,6,0.0,0.0,95,0.00,,,0.00,weatherlink.com 1.10,2013-03-05 15:23:00,
2013-03-05 07:38:00,41.9,41.0,30.06,North,6,0.0,0.0,95,0.00,,,0.00,weatherlink.com 1.10,2013-03-05 15:38:00,
2013-03-05 07:53:00,42.1,41.0,30.06,North,6,0.0,0.0,95,0.00,,,0.00,weatherlink.com 1.10,2013-03-05 15:53:00,
2013-03-05 08:08:00,42.5,41.0,30.06,North,6,0.0,0.0,94,0.00,,,0.00,weatherlink.com 1.10,2013-03-05 16:08:00,
2013-03-05 08:23:00,42.7,40.0,30.06,North,6,0.0,0.0,90,0.00,,,0.00,weatherlink.com 1.10,2013-03-05 16:23:00,
2013-03-05 08:38:00,42.9,40.0,30.06,WNW,295,0.0,1.0,88,0.00,,,0.00,weatherlink.com 1.10,2013-03-05 16:38:00,
2013-03-05 08:53:00,43.3,40.0,30.06,North,8,0.0,1.0,88,0.00,,,0.00,weatherlink.com 1.10,2013-03-05 16:53:00,
2013-03-05 09:08:00,43.9,40.0,30.05,NE,51,0.0,1.0,87,0.00,,,0.00,weatherlink.com 1.10,2013-03-05 17:08:00,
2013-03-05 09:23:00,44.7,41.0,30.05,WNW,291,0.0,1.0,85,0.00,,,0.00,weatherlink.com 1.10,2013-03-05 17:23:00,
2013-03-05 09:38:00,45.2,41.0,30.05,NE,54,0.0,2.0,84,0.00,,,0.00,weatherlink.com 1.10,2013-03-05 17:38:00,
2013-03-05 09:53:00,45.7,41.0,30.05,ESE,120,0.0,2.0,82,0.00,,,0.00,weatherlink.com 1.10,2013-03-05 17:53:00,
2013-03-05 10:09:00,46.6,41.0,30.04,NE,46,0.0,2.0,82,0.00,,,0.00,weatherlink.com 1.10,2013-03-05 18:09:00,
2013-03-05 10:24:00,47.3,41.0,30.04,West,263,0.0,2.0,80,0.00,,,0.00,weatherlink.com 1.10,2013-03-05 18:24:00,
2013-03-05 10:39:00,47.4,41.0,30.04,North,353,0.0,1.0,78,0.00,,,0.00,weatherlink.com 1.10,2013-03-05 18:39:00,
2013-03-05 10:54:00,48.0,41.0,30.04,NW,323,0.0,3.0,78,0.00,,,0.00,weatherlink.com 1.10,2013-03-05 18:54:00,
2013-03-05 11:09:00,49.2,42.0,30.04,NW,321,3.0,4.0,75,0.00,,,0.00,weatherlink.com 1.10,2013-03-05 19:09:00,
2013-03-05 11:24:00,49.1,42.0,30.04,NW,323,3.0,5.0,75,0.00,,,0.00,weatherlink.com 1.10,2013-03-05 19:24:00,
2013-03-05 11:39:00,50.1,42.0,30.04,NNW,340,0.0,3.0,73,0.00,,,0.00,weatherlink.com 1.10,2013-03-05 19:39:00,
2013-03-05 11:54:00,49.8,41.0,30.03,NW,316,1.0,3.0,73,0.00,,,0.00,weatherlink.com 1.10,2013-03-05 19:54:00,
2013-03-05 12:09:00,49.4,42.0,30.03,NW,323,3.0,4.0,75,0.00,,,0.00,weatherlink.com 1.10,2013-03-05 20:09:00,
2013-03-05 12:24:00,49.0,42.0,30.02,NNW,338,0.0,3.0,76,0.00,,,0.00,weatherlink.com 1.10,2013-03-05 20:24:00,
2013-03-05 12:39:00,49.0,42.0,30.01,NE,34,0.0,1.0,77,0.00,,,0.00,weatherlink.com 1.10,2013-03-05 20:39:00,
2013-03-05 12:54:00,48.3,41.0,30.01,North,357,1.0,4.0,77,0.00,,,0.00,weatherlink.com 1.10,2013-03-05 20:54:00,
2013-03-05 13:09:00,48.3,42.0,30.00,NNE,25,0.0,1.0,80,0.00,,,0.00,weatherlink.com 1.10,2013-03-05 21:09:00,
2013-03-05 13:24:00,48.7,42.0,30.00,NNW,345,0.0,2.0,77,0.00,,,0.00,weatherlink.com 1.10,2013-03-05 21:24:00,
2013-03-05 13:39:00,48.5,41.0,29.99,North,9,0.0,3.0,76,0.00,,,0.00,weatherlink.com 1.10,2013-03-05 21:39:00,
2013-03-05 13:54:00,49.1,42.0,29.99,NNW,343,1.0,1.0,76,0.00,,,0.00,weatherlink.com 1.10,2013-03-05 21:54:00,
2013-03-05 14:09:00,49.3,41.0,29.98,NW,318,4.0,4.0,74,0.00,,,0.00,weatherlink.com 1.10,2013-03-05 22:09:00,
2013-03-05 14:24:00,48.8,42.0,29.98,NW,326,2.0,4.0,76,0.00,,,0.00,weatherlink.com 1.10,2013-03-05 22:24:00,
2013-03-05 14:39:00,49.1,42.0,29.97,NNE,27,2.0,4.0,75,0.00,,,0.00,weatherlink.com 1.10,2013-03-05 22:39:00,
2013-03-05 14:54:00,49.2,42.0,29.98,ENE,65,0.0,2.0,75,0.00,,,0.00,weatherlink.com 1.10,2013-03-05 22:54:00,
2013-03-05 15:09:00,49.2,42.0,29.97,NW,307,1.0,3.0,75,0.00,,,0.00,weatherlink.com 1.10,2013-03-05 23:09:00,
2013-03-05 15:24:00,49.1,42.0,29.97,NNE,27,0.0,2.0,76,0.00,,,0.00,weatherlink.com 1.10,2013-03-05 23:24:00,
2013-03-05 15:39:00,49.1,42.0,29.97,NW,307,1.0,4.0,76,0.00,,,0.00,weatherlink.com 1.10,2013-03-05 23:39:00,
2013-03-05 15:54:00,49.3,42.0,29.96,North,360,0.0,4.0,77,0.00,,,0.00,weatherlink.com 1.10,2013-03-05 23:54:00,
2013-03-05 16:24:00,48.7,42.0,29.96,North,359,0.0,1.0,78,0.00,,,0.00,weatherlink.com 1.10,2013-03-06 00:24:00,
2013-03-05 16:39:00,48.3,42.0,29.95,NW,311,0.0,1.0,80,0.00,,,0.00,weatherlink.com 1.10,2013-03-06 00:39:00,
2013-03-05 16:54:00,48.2,42.0,29.95,NNW,336,0.0,1.0,80,0.00,,,0.00,weatherlink.com 1.10,2013-03-06 00:54:00,
2013-03-05 17:09:00,48.1,43.0,29.94,NNW,336,0.0,0.0,81,0.00,,,0.00,weatherlink.com 1.10,2013-03-06 01:09:00,
2013-03-05 17:24:00,47.7,43.0,29.94,NNW,336,0.0,1.0,82,0.00,,,0.00,weatherlink.com 1.10,2013-03-06 01:24:00,
2013-03-05 17:39:00,47.3,42.0,29.94,NNW,347,1.0,2.0,83,0.00,,,0.00,weatherlink.com 1.10,2013-03-06 01:39:00,
2013-03-05 17:54:00,47.0,42.0,29.94,North,353,0.0,0.0,84,0.00,,,0.00,weatherlink.com 1.10,2013-03-06 01:54:00,
2013-03-05 18:09:00,46.7,43.0,29.94,North,353,0.0,1.0,85,0.00,,,0.00,weatherlink.com 1.10,2013-03-06 02:09:00,
2013-03-05 18:24:00,46.5,43.0,29.93,NNW,345,0.0,1.0,86,0.00,,,0.00,weatherlink.com 1.10,2013-03-06 02:24:00,
2013-03-05 18:39:00,46.3,42.0,29.93,NW,307,2.0,2.0,86,0.00,,,0.00,weatherlink.com 1.10,2013-03-06 02:39:00,
2013-03-05 18:54:00,46.2,43.0,29.93,NW,316,0.0,3.0,87,0.00,,,0.00,weatherlink.com 1.10,2013-03-06 02:54:00,
2013-03-05 19:09:00,46.3,43.0,29.93,WNW,303,1.0,2.0,87,0.00,,,0.00,weatherlink.com 1.10,2013-03-06 03:09:00,
2013-03-05 19:24:00,46.2,43.0,29.93,NW,314,0.0,3.0,87,0.00,,,0.00,weatherlink.com 1.10,2013-03-06 03:24:00,
2013-03-05 19:39:00,46.2,43.0,29.93,NNW,339,0.0,2.0,87,0.00,,,0.00,weatherlink.com 1.10,2013-03-06 03:39:00,
2013-03-05 19:54:00,46.1,43.0,29.92,NW,323,1.0,2.0,87,0.00,,,0.00,weatherlink.com 1.10,2013-03-06 03:54:00,
2013-03-05 20:09:00,46.1,42.0,29.92,NW,314,1.0,2.0,86,0.00,,,0.00,weatherlink.com 1.10,2013-03-06 04:09:00,
2013-03-05 20:25:00,46.1,42.0,29.92,NW,323,0.0,3.0,86,0.00,,,0.00,weatherlink.com 1.10,2013-03-06 04:25:00,
2013-03-05 20:40:00,46.2,42.0,29.91,NW,311,1.0,3.0,86,0.00,,,0.00,weatherlink.com 1.10,2013-03-06 04:40:00,
2013-03-05 20:55:00,46.4,43.0,29.91,NNW,345,0.0,2.0,86,0.00,,,0.00,weatherlink.com 1.10,2013-03-06 04:55:00,
2013-03-05 21:10:00,46.5,42.0,29.91,NW,307,0.0,2.0,85,0.00,,,0.00,weatherlink.com 1.10,2013-03-06 05:10:00,
2013-03-05 21:25:00,46.4,43.0,29.92,NNE,15,0.0,2.0,89,0.00,,,0.00,weatherlink.com 1.10,2013-03-06 05:25:00,
2013-03-05 21:40:00,45.8,44.0,29.91,North,1,0.0,1.0,92,0.00,,,0.00,weatherlink.com 1.10,2013-03-06 05:40:00,
2013-03-05 22:10:00,44.9,43.0,29.92,NW,320,1.0,2.0,94,0.00,,,0.00,weatherlink.com 1.10,2013-03-06 06:10:00,
2013-03-05 22:25:00,44.6,43.0,29.91,NNW,347,0.0,1.0,95,0.03,,,0.03,weatherlink.com 1.10,2013-03-06 06:25:00,
2013-03-05 22:40:00,44.2,43.0,29.92,NNW,347,0.0,1.0,95,0.08,,,0.08,weatherlink.com 1.10,2013-03-06 06:40:00,
2013-03-05 22:55:00,43.8,43.0,29.92,WNW,302,1.0,3.0,95,0.12,,,0.12,weatherlink.com 1.10,2013-03-06 06:55:00,
2013-03-05 23:10:00,43.5,42.0,29.91,NW,316,0.0,2.0,95,0.15,,,0.15,weatherlink.com 1.10,2013-03-06 07:10:00,
2013-03-05 23:25:00,43.2,42.0,29.91,NW,318,1.0,2.0,96,0.15,,,0.18,weatherlink.com 1.10,2013-03-06 07:25:00,
2013-03-05 23:40:00,42.7,42.0,29.91,NNW,328,0.0,3.0,96,0.12,,,0.20,weatherlink.com 1.10,2013-03-06 07:40:00,
2013-03-05 23:55:00,42.6,42.0,29.91,WNW,293,0.0,2.0,96,0.12,,,0.24,weatherlink.com 1.10,2013-03-06 07:55:00,